sensor_id;sensor_type;location;lat;lon;timestamp;temperature;humidity
21033;DHT22;10675;47.976;7.824;2023-01-09T00:01:09;10.20;99.90
21033;DHT22;10675;47.976;7.824;2023-01-09T00:03:35;10.20;99.90
21033;DHT22;10675;47.976;7.824;2023-01-09T00:06:00;10.20;99.90
21033;DHT22;10675;47.976;7.824;2023-01-09T00:08:26;10.30;99.90
21033;DHT22;10675;47.976;7.824;2023-01-09T00:10:51;10.30;99.90
21033;DHT22;10675;47.976;7.824;2023-01-09T00:13:17;10.30;99.90
21033;DHT22;10675;47.976;7.824;2023-01-09T00:15:42;10.20;99.90
21033;DHT22;10675;47.976;7.824;2023-01-09T00:18:08;10.20;99.90
21033;DHT22;10675;47.976;7.824;2023-01-09T00:20:34;10.20;99.90
21033;DHT22;10675;47.976;7.824;2023-01-09T00:23:00;10.30;99.90
21033;DHT22;10675;47.976;7.824;2023-01-09T00:25:25;10.30;99.90
21033;DHT22;10675;47.976;7.824;2023-01-09T00:27:51;10.20;99.90
21033;DHT22;10675;47.976;7.824;2023-01-09T00:32:42;10.20;99.90
21033;DHT22;10675;47.976;7.824;2023-01-09T00:35:11;10.10;99.90
21033;DHT22;10675;47.976;7.824;2023-01-09T00:37:38;10.00;99.90
21033;DHT22;10675;47.976;7.824;2023-01-09T00:40:04;10.00;99.90
21033;DHT22;10675;47.976;7.824;2023-01-09T00:42:31;10.00;99.90
21033;DHT22;10675;47.976;7.824;2023-01-09T00:45:02;10.00;99.90
21033;DHT22;10675;47.976;7.824;2023-01-09T00:47:32;10.00;99.90
21033;DHT22;10675;47.976;7.824;2023-01-09T00:50:04;10.00;99.90
21033;DHT22;10675;47.976;7.824;2023-01-09T00:52:32;10.00;99.90
21033;DHT22;10675;47.976;7.824;2023-01-09T00:57:25;9.80;99.90
21033;DHT22;10675;47.976;7.824;2023-01-09T00:59:51;9.70;99.90
21033;DHT22;10675;47.976;7.824;2023-01-09T01:02:16;9.70;99.90
21033;DHT22;10675;47.976;7.824;2023-01-09T01:04:42;9.70;99.90
21033;DHT22;10675;47.976;7.824;2023-01-09T01:07:26;9.60;99.90
21033;DHT22;10675;47.976;7.824;2023-01-09T01:10:23;9.50;99.90
21033;DHT22;10675;47.976;7.824;2023-01-09T01:12:49;9.50;99.90
21033;DHT22;10675;47.976;7.824;2023-01-09T01:15:16;9.50;99.90
21033;DHT22;10675;47.976;7.824;2023-01-09T01:17:42;9.40;99.90
21033;DHT22;10675;47.976;7.824;2023-01-09T01:20:12;9.40;99.90
21033;DHT22;10675;47.976;7.824;2023-01-09T01:22:38;9.30;99.90
21033;DHT22;10675;47.976;7.824;2023-01-09T01:25:04;9.50;99.90
21033;DHT22;10675;47.976;7.824;2023-01-09T01:27:29;9.30;99.90
21033;DHT22;10675;47.976;7.824;2023-01-09T01:29:55;9.40;99.90
21033;DHT22;10675;47.976;7.824;2023-01-09T01:32:21;9.40;99.90
21033;DHT22;10675;47.976;7.824;2023-01-09T01:34:46;9.40;99.90
21033;DHT22;10675;47.976;7.824;2023-01-09T01:37:12;9.30;99.90
21033;DHT22;10675;47.976;7.824;2023-01-09T01:39:37;9.30;99.90
21033;DHT22;10675;47.976;7.824;2023-01-09T01:42:04;9.40;99.90
21033;DHT22;10675;47.976;7.824;2023-01-09T01:47:23;9.40;99.90
21033;DHT22;10675;47.976;7.824;2023-01-09T01:49:51;9.40;99.90
21033;DHT22;10675;47.976;7.824;2023-01-09T01:52:16;9.50;99.90
21033;DHT22;10675;47.976;7.824;2023-01-09T01:54:44;9.50;99.90
21033;DHT22;10675;47.976;7.824;2023-01-09T01:57:10;9.40;99.90
21033;DHT22;10675;47.976;7.824;2023-01-09T01:59:39;9.50;99.90
21033;DHT22;10675;47.976;7.824;2023-01-09T02:02:07;9.40;99.90
21033;DHT22;10675;47.976;7.824;2023-01-09T02:04:34;9.40;99.90
21033;DHT22;10675;47.976;7.824;2023-01-09T02:07:03;9.40;99.90
21033;DHT22;10675;47.976;7.824;2023-01-09T02:09:31;9.40;99.90
21033;DHT22;10675;47.976;7.824;2023-01-09T02:11:57;9.30;99.90
21033;DHT22;10675;47.976;7.824;2023-01-09T02:14:29;9.30;99.90
21033;DHT22;10675;47.976;7.824;2023-01-09T02:17:24;9.30;99.90
21033;DHT22;10675;47.976;7.824;2023-01-09T02:31:09;9.20;99.90
21033;DHT22;10675;47.976;7.824;2023-01-09T02:34:04;9.20;99.90
21033;DHT22;10675;47.976;7.824;2023-01-09T02:37:03;9.20;99.90
21033;DHT22;10675;47.976;7.824;2023-01-09T02:39:53;9.10;99.90
21033;DHT22;10675;47.976;7.824;2023-01-09T02:42:22;9.10;99.90
21033;DHT22;10675;47.976;7.824;2023-01-09T02:44:48;9.00;99.90
21033;DHT22;10675;47.976;7.824;2023-01-09T02:49:54;9.00;99.90
21033;DHT22;10675;47.976;7.824;2023-01-09T02:52:41;8.90;99.90
21033;DHT22;10675;47.976;7.824;2023-01-09T02:57:53;8.90;99.90
21033;DHT22;10675;47.976;7.824;2023-01-09T03:00:45;8.90;99.90
21033;DHT22;10675;47.976;7.824;2023-01-09T03:03:33;8.90;99.90
21033;DHT22;10675;47.976;7.824;2023-01-09T03:08:55;8.90;99.90
21033;DHT22;10675;47.976;7.824;2023-01-09T03:11:23;8.90;99.90
21033;DHT22;10675;47.976;7.824;2023-01-09T03:13:54;8.80;99.90
21033;DHT22;10675;47.976;7.824;2023-01-09T03:16:23;8.80;99.90
21033;DHT22;10675;47.976;7.824;2023-01-09T03:18:52;8.80;99.90
21033;DHT22;10675;47.976;7.824;2023-01-09T03:21:20;8.80;99.90
21033;DHT22;10675;47.976;7.824;2023-01-09T03:23:54;8.80;99.90
21033;DHT22;10675;47.976;7.824;2023-01-09T03:26:20;8.80;99.90
21033;DHT22;10675;47.976;7.824;2023-01-09T03:28:47;8.70;99.90
21033;DHT22;10675;47.976;7.824;2023-01-09T03:31:13;8.70;99.90
21033;DHT22;10675;47.976;7.824;2023-01-09T03:36:10;8.60;99.90
21033;DHT22;10675;47.976;7.824;2023-01-09T03:41:02;8.50;99.90
21033;DHT22;10675;47.976;7.824;2023-01-09T03:43:28;8.50;99.90
21033;DHT22;10675;47.976;7.824;2023-01-09T03:45:53;8.50;99.90
21033;DHT22;10675;47.976;7.824;2023-01-09T03:48:19;8.40;99.90
21033;DHT22;10675;47.976;7.824;2023-01-09T03:50:47;8.40;99.90
21033;DHT22;10675;47.976;7.824;2023-01-09T03:53:13;8.40;99.90
21033;DHT22;10675;47.976;7.824;2023-01-09T03:55:42;8.30;99.90
21033;DHT22;10675;47.976;7.824;2023-01-09T03:58:08;8.20;99.90
21033;DHT22;10675;47.976;7.824;2023-01-09T04:00:33;8.20;99.90
21033;DHT22;10675;47.976;7.824;2023-01-09T04:02:59;8.00;99.90
21033;DHT22;10675;47.976;7.824;2023-01-09T04:05:24;8.00;99.90
21033;DHT22;10675;47.976;7.824;2023-01-09T04:07:50;8.00;99.90
21033;DHT22;10675;47.976;7.824;2023-01-09T04:10:15;7.90;99.90
21033;DHT22;10675;47.976;7.824;2023-01-09T04:12:41;7.90;99.90
21033;DHT22;10675;47.976;7.824;2023-01-09T04:15:07;7.80;99.90
21033;DHT22;10675;47.976;7.824;2023-01-09T04:17:32;7.80;99.90
21033;DHT22;10675;47.976;7.824;2023-01-09T04:19:58;7.80;99.90
21033;DHT22;10675;47.976;7.824;2023-01-09T04:22:24;7.80;99.90
21033;DHT22;10675;47.976;7.824;2023-01-09T04:24:50;7.80;99.90
21033;DHT22;10675;47.976;7.824;2023-01-09T04:27:15;7.60;99.90
21033;DHT22;10675;47.976;7.824;2023-01-09T04:29:41;7.60;99.90
21033;DHT22;10675;47.976;7.824;2023-01-09T04:32:06;7.60;99.90
21033;DHT22;10675;47.976;7.824;2023-01-09T04:34:32;7.60;99.90
21033;DHT22;10675;47.976;7.824;2023-01-09T04:36:57;7.60;99.90
21033;DHT22;10675;47.976;7.824;2023-01-09T04:39:23;7.50;99.90
21033;DHT22;10675;47.976;7.824;2023-01-09T04:41:48;7.40;99.90
21033;DHT22;10675;47.976;7.824;2023-01-09T04:44:22;7.40;99.90
21033;DHT22;10675;47.976;7.824;2023-01-09T04:46:50;7.20;99.90
21033;DHT22;10675;47.976;7.824;2023-01-09T04:49:16;7.30;99.90
21033;DHT22;10675;47.976;7.824;2023-01-09T04:51:42;7.30;99.90
21033;DHT22;10675;47.976;7.824;2023-01-09T04:54:07;7.30;99.90
21033;DHT22;10675;47.976;7.824;2023-01-09T04:56:34;7.20;99.90
21033;DHT22;10675;47.976;7.824;2023-01-09T04:58:59;7.20;99.90
21033;DHT22;10675;47.976;7.824;2023-01-09T05:01:25;7.20;99.90
21033;DHT22;10675;47.976;7.824;2023-01-09T05:03:50;7.20;99.90
21033;DHT22;10675;47.976;7.824;2023-01-09T05:06:16;7.20;99.90
21033;DHT22;10675;47.976;7.824;2023-01-09T05:08:41;7.10;99.90
21033;DHT22;10675;47.976;7.824;2023-01-09T05:11:07;7.10;99.90
21033;DHT22;10675;47.976;7.824;2023-01-09T05:13:33;7.00;99.90
21033;DHT22;10675;47.976;7.824;2023-01-09T05:15:59;7.00;99.90
21033;DHT22;10675;47.976;7.824;2023-01-09T05:18:24;7.00;99.90
21033;DHT22;10675;47.976;7.824;2023-01-09T05:20:49;7.00;99.90
21033;DHT22;10675;47.976;7.824;2023-01-09T05:23:15;7.00;99.90
21033;DHT22;10675;47.976;7.824;2023-01-09T05:25:40;7.00;99.90
21033;DHT22;10675;47.976;7.824;2023-01-09T05:28:06;7.00;99.90
21033;DHT22;10675;47.976;7.824;2023-01-09T05:30:33;7.00;99.90
21033;DHT22;10675;47.976;7.824;2023-01-09T05:32:58;7.00;99.90
21033;DHT22;10675;47.976;7.824;2023-01-09T05:35:24;7.00;99.90
21033;DHT22;10675;47.976;7.824;2023-01-09T05:37:49;7.00;99.90
21033;DHT22;10675;47.976;7.824;2023-01-09T05:40:15;7.00;99.90
21033;DHT22;10675;47.976;7.824;2023-01-09T05:42:42;7.00;99.90
21033;DHT22;10675;47.976;7.824;2023-01-09T05:45:08;7.00;99.90
21033;DHT22;10675;47.976;7.824;2023-01-09T05:47:34;7.00;99.90
21033;DHT22;10675;47.976;7.824;2023-01-09T05:49:59;7.00;99.90
21033;DHT22;10675;47.976;7.824;2023-01-09T05:52:25;7.00;99.90
21033;DHT22;10675;47.976;7.824;2023-01-09T05:54:50;6.90;99.90
21033;DHT22;10675;47.976;7.824;2023-01-09T05:57:16;6.90;99.90
21033;DHT22;10675;47.976;7.824;2023-01-09T05:59:41;6.90;99.90
21033;DHT22;10675;47.976;7.824;2023-01-09T06:02:07;6.80;99.90
21033;DHT22;10675;47.976;7.824;2023-01-09T06:04:35;6.90;99.90
21033;DHT22;10675;47.976;7.824;2023-01-09T06:07:01;6.80;99.90
21033;DHT22;10675;47.976;7.824;2023-01-09T06:09:26;6.90;99.90
21033;DHT22;10675;47.976;7.824;2023-01-09T06:11:52;6.80;99.90
21033;DHT22;10675;47.976;7.824;2023-01-09T06:14:19;6.80;99.90
21033;DHT22;10675;47.976;7.824;2023-01-09T06:16:45;6.90;99.90
21033;DHT22;10675;47.976;7.824;2023-01-09T06:19:10;6.80;99.90
21033;DHT22;10675;47.976;7.824;2023-01-09T06:21:36;6.80;99.90
21033;DHT22;10675;47.976;7.824;2023-01-09T06:24:01;6.80;99.90
21033;DHT22;10675;47.976;7.824;2023-01-09T06:26:27;6.90;99.90
21033;DHT22;10675;47.976;7.824;2023-01-09T06:28:53;6.90;99.90
21033;DHT22;10675;47.976;7.824;2023-01-09T06:31:22;6.90;99.90
21033;DHT22;10675;47.976;7.824;2023-01-09T06:33:48;6.90;99.90
21033;DHT22;10675;47.976;7.824;2023-01-09T06:36:13;6.90;99.90
21033;DHT22;10675;47.976;7.824;2023-01-09T06:38:39;6.90;99.90
21033;DHT22;10675;47.976;7.824;2023-01-09T06:41:05;7.00;99.90
21033;DHT22;10675;47.976;7.824;2023-01-09T06:43:30;6.90;99.90
21033;DHT22;10675;47.976;7.824;2023-01-09T06:45:56;7.00;99.90
21033;DHT22;10675;47.976;7.824;2023-01-09T06:48:22;7.00;99.90
21033;DHT22;10675;47.976;7.824;2023-01-09T06:50:50;7.10;99.90
21033;DHT22;10675;47.976;7.824;2023-01-09T06:53:15;7.20;99.90
21033;DHT22;10675;47.976;7.824;2023-01-09T06:55:42;7.20;99.90
21033;DHT22;10675;47.976;7.824;2023-01-09T06:58:07;7.20;99.90
21033;DHT22;10675;47.976;7.824;2023-01-09T07:00:33;7.20;99.90
21033;DHT22;10675;47.976;7.824;2023-01-09T07:02:59;7.20;99.90
21033;DHT22;10675;47.976;7.824;2023-01-09T07:05:24;7.20;99.90
21033;DHT22;10675;47.976;7.824;2023-01-09T07:07:50;7.20;99.90
21033;DHT22;10675;47.976;7.824;2023-01-09T07:10:15;7.20;99.90
21033;DHT22;10675;47.976;7.824;2023-01-09T07:12:41;7.30;99.90
21033;DHT22;10675;47.976;7.824;2023-01-09T07:15:07;7.30;99.90
21033;DHT22;10675;47.976;7.824;2023-01-09T07:17:32;7.30;99.90
21033;DHT22;10675;47.976;7.824;2023-01-09T07:22:24;7.40;99.90
21033;DHT22;10675;47.976;7.824;2023-01-09T07:24:50;7.60;99.90
21033;DHT22;10675;47.976;7.824;2023-01-09T07:27:15;7.90;99.90
21033;DHT22;10675;47.976;7.824;2023-01-09T07:29:41;8.00;99.90
21033;DHT22;10675;47.976;7.824;2023-01-09T07:32:06;7.80;99.90
21033;DHT22;10675;47.976;7.824;2023-01-09T07:34:32;8.00;99.90
21033;DHT22;10675;47.976;7.824;2023-01-09T07:36:57;8.10;99.90
21033;DHT22;10675;47.976;7.824;2023-01-09T07:39:23;8.10;99.90
21033;DHT22;10675;47.976;7.824;2023-01-09T07:41:48;8.00;99.90
21033;DHT22;10675;47.976;7.824;2023-01-09T07:44:14;8.00;99.90
21033;DHT22;10675;47.976;7.824;2023-01-09T07:46:40;7.70;99.90
21033;DHT22;10675;47.976;7.824;2023-01-09T07:49:06;7.60;99.90
21033;DHT22;10675;47.976;7.824;2023-01-09T07:51:31;7.60;99.90
21033;DHT22;10675;47.976;7.824;2023-01-09T07:53:57;7.60;99.90
21033;DHT22;10675;47.976;7.824;2023-01-09T07:56:23;7.50;99.90
21033;DHT22;10675;47.976;7.824;2023-01-09T07:58:48;7.50;99.90
21033;DHT22;10675;47.976;7.824;2023-01-09T08:01:14;7.60;99.90
21033;DHT22;10675;47.976;7.824;2023-01-09T08:03:39;7.60;99.90
21033;DHT22;10675;47.976;7.824;2023-01-09T08:06:05;7.60;99.90
21033;DHT22;10675;47.976;7.824;2023-01-09T08:08:31;7.60;99.90
21033;DHT22;10675;47.976;7.824;2023-01-09T08:10:56;7.60;99.90
21033;DHT22;10675;47.976;7.824;2023-01-09T08:13:22;7.60;99.90
21033;DHT22;10675;47.976;7.824;2023-01-09T08:15:47;7.60;99.90
21033;DHT22;10675;47.976;7.824;2023-01-09T08:18:13;7.70;99.90
21033;DHT22;10675;47.976;7.824;2023-01-09T08:20:38;7.60;99.90
21033;DHT22;10675;47.976;7.824;2023-01-09T08:23:04;7.60;99.90
21033;DHT22;10675;47.976;7.824;2023-01-09T08:25:29;7.60;99.90
21033;DHT22;10675;47.976;7.824;2023-01-09T08:27:55;7.60;99.90
21033;DHT22;10675;47.976;7.824;2023-01-09T08:30:20;7.60;99.90
21033;DHT22;10675;47.976;7.824;2023-01-09T08:32:50;7.50;99.90
21033;DHT22;10675;47.976;7.824;2023-01-09T08:35:16;7.50;99.90
21033;DHT22;10675;47.976;7.824;2023-01-09T08:37:44;7.60;99.90
21033;DHT22;10675;47.976;7.824;2023-01-09T08:40:11;7.50;99.90
21033;DHT22;10675;47.976;7.824;2023-01-09T08:42:36;7.50;99.90
21033;DHT22;10675;47.976;7.824;2023-01-09T08:45:21;7.50;99.90
21033;DHT22;10675;47.976;7.824;2023-01-09T08:50:32;7.60;99.90
21033;DHT22;10675;47.976;7.824;2023-01-09T08:52:57;7.70;99.90
21033;DHT22;10675;47.976;7.824;2023-01-09T08:55:23;7.70;99.90
21033;DHT22;10675;47.976;7.824;2023-01-09T08:57:50;7.80;99.90
21033;DHT22;10675;47.976;7.824;2023-01-09T09:00:17;7.70;99.90
21033;DHT22;10675;47.976;7.824;2023-01-09T09:02:43;7.70;99.90
21033;DHT22;10675;47.976;7.824;2023-01-09T09:05:09;7.80;99.90
21033;DHT22;10675;47.976;7.824;2023-01-09T09:07:34;7.80;99.90
21033;DHT22;10675;47.976;7.824;2023-01-09T09:10:00;7.80;99.90
21033;DHT22;10675;47.976;7.824;2023-01-09T09:12:26;7.80;99.90
21033;DHT22;10675;47.976;7.824;2023-01-09T09:14:52;7.90;99.90
21033;DHT22;10675;47.976;7.824;2023-01-09T09:17:36;7.90;99.90
21033;DHT22;10675;47.976;7.824;2023-01-09T09:20:01;8.00;99.90
21033;DHT22;10675;47.976;7.824;2023-01-09T09:22:27;8.00;99.90
21033;DHT22;10675;47.976;7.824;2023-01-09T09:24:52;8.00;99.90
21033;DHT22;10675;47.976;7.824;2023-01-09T09:27:18;8.20;99.90
21033;DHT22;10675;47.976;7.824;2023-01-09T09:29:44;8.20;99.90
21033;DHT22;10675;47.976;7.824;2023-01-09T09:32:10;8.20;99.90
21033;DHT22;10675;47.976;7.824;2023-01-09T09:34:35;8.20;99.90
21033;DHT22;10675;47.976;7.824;2023-01-09T09:37:00;8.20;99.90
21033;DHT22;10675;47.976;7.824;2023-01-09T09:39:26;8.30;99.90
21033;DHT22;10675;47.976;7.824;2023-01-09T09:55:40;8.40;99.90
21033;DHT22;10675;47.976;7.824;2023-01-09T10:00:47;9.30;99.90
21033;DHT22;10675;47.976;7.824;2023-01-09T10:03:31;8.80;99.90
21033;DHT22;10675;47.976;7.824;2023-01-09T10:06:04;8.60;99.90
21033;DHT22;10675;47.976;7.824;2023-01-09T10:08:40;8.60;99.90
21033;DHT22;10675;47.976;7.824;2023-01-09T10:11:15;8.60;99.90
21033;DHT22;10675;47.976;7.824;2023-01-09T10:13:43;8.60;99.90
21033;DHT22;10675;47.976;7.824;2023-01-09T10:25:45;8.60;99.90
21033;DHT22;10675;47.976;7.824;2023-01-09T10:39:07;8.50;99.90
21033;DHT22;10675;47.976;7.824;2023-01-09T10:42:08;8.40;99.90
21033;DHT22;10675;47.976;7.824;2023-01-09T10:44:43;8.40;99.90
21033;DHT22;10675;47.976;7.824;2023-01-09T10:47:32;8.40;99.90
21033;DHT22;10675;47.976;7.824;2023-01-09T10:49:59;8.40;99.90
21033;DHT22;10675;47.976;7.824;2023-01-09T10:52:39;8.40;99.90
21033;DHT22;10675;47.976;7.824;2023-01-09T10:55:13;8.20;99.90
21033;DHT22;10675;47.976;7.824;2023-01-09T10:57:46;8.10;99.90
21033;DHT22;10675;47.976;7.824;2023-01-09T11:00:22;7.90;99.90
21033;DHT22;10675;47.976;7.824;2023-01-09T11:02:48;7.90;99.90
21033;DHT22;10675;47.976;7.824;2023-01-09T11:05:23;7.70;99.90
21033;DHT22;10675;47.976;7.824;2023-01-09T11:10:21;7.40;99.90
21033;DHT22;10675;47.976;7.824;2023-01-09T11:12:47;7.40;99.90
21033;DHT22;10675;47.976;7.824;2023-01-09T11:17:48;7.50;99.90
21033;DHT22;10675;47.976;7.824;2023-01-09T11:20:25;7.50;99.90
21033;DHT22;10675;47.976;7.824;2023-01-09T11:22:53;7.50;99.90
21033;DHT22;10675;47.976;7.824;2023-01-09T11:25:27;7.50;99.90
21033;DHT22;10675;47.976;7.824;2023-01-09T11:30:33;7.50;99.90
21033;DHT22;10675;47.976;7.824;2023-01-09T11:33:13;7.50;99.90
21033;DHT22;10675;47.976;7.824;2023-01-09T11:38:15;7.50;99.90
21033;DHT22;10675;47.976;7.824;2023-01-09T11:41:02;7.50;99.90
21033;DHT22;10675;47.976;7.824;2023-01-09T11:43:36;7.50;99.90
21033;DHT22;10675;47.976;7.824;2023-01-09T11:46:06;7.50;99.90
21033;DHT22;10675;47.976;7.824;2023-01-09T11:48:38;7.50;99.90
21033;DHT22;10675;47.976;7.824;2023-01-09T11:51:30;7.60;99.90
21033;DHT22;10675;47.976;7.824;2023-01-09T11:56:43;7.70;99.90
21033;DHT22;10675;47.976;7.824;2023-01-09T11:59:20;7.70;99.90
21033;DHT22;10675;47.976;7.824;2023-01-09T12:10:40;7.90;99.90
21033;DHT22;10675;47.976;7.824;2023-01-09T12:18:58;7.90;99.90
21033;DHT22;10675;47.976;7.824;2023-01-09T12:21:38;7.90;99.90
21033;DHT22;10675;47.976;7.824;2023-01-09T12:27:20;7.80;99.90
21033;DHT22;10675;47.976;7.824;2023-01-09T12:36:08;8.20;99.90
21033;DHT22;10675;47.976;7.824;2023-01-09T12:38:53;8.30;99.90
21033;DHT22;10675;47.976;7.824;2023-01-09T12:52:28;8.40;99.90
21033;DHT22;10675;47.976;7.824;2023-01-09T12:55:00;8.40;99.90
21033;DHT22;10675;47.976;7.824;2023-01-09T12:57:32;8.50;99.90
21033;DHT22;10675;47.976;7.824;2023-01-09T13:00:10;8.60;99.90
21033;DHT22;10675;47.976;7.824;2023-01-09T13:03:05;8.70;99.90
21033;DHT22;10675;47.976;7.824;2023-01-09T13:05:38;8.80;99.90
21033;DHT22;10675;47.976;7.824;2023-01-09T13:16:25;8.60;99.90
21033;DHT22;10675;47.976;7.824;2023-01-09T13:18:59;8.60;99.90
21033;DHT22;10675;47.976;7.824;2023-01-09T13:21:28;8.50;99.90
21033;DHT22;10675;47.976;7.824;2023-01-09T13:24:22;8.50;99.90
21033;DHT22;10675;47.976;7.824;2023-01-09T13:26:52;8.50;99.90
21033;DHT22;10675;47.976;7.824;2023-01-09T13:29:26;8.00;99.90
21033;DHT22;10675;47.976;7.824;2023-01-09T13:34:55;7.50;99.90
21033;DHT22;10675;47.976;7.824;2023-01-09T13:37:24;7.50;99.90
21033;DHT22;10675;47.976;7.824;2023-01-09T13:42:28;7.40;99.90
21033;DHT22;10675;47.976;7.824;2023-01-09T13:47:41;7.30;99.90
21033;DHT22;10675;47.976;7.824;2023-01-09T13:52:41;7.20;99.90
21033;DHT22;10675;47.976;7.824;2023-01-09T14:08:04;7.50;99.90
21033;DHT22;10675;47.976;7.824;2023-01-09T14:13:17;7.60;99.90
21033;DHT22;10675;47.976;7.824;2023-01-09T14:15:45;7.70;99.90
21033;DHT22;10675;47.976;7.824;2023-01-09T14:18:18;7.60;99.90
21033;DHT22;10675;47.976;7.824;2023-01-09T14:21:01;7.50;99.90
21033;DHT22;10675;47.976;7.824;2023-01-09T14:26:02;7.10;99.90
21033;DHT22;10675;47.976;7.824;2023-01-09T14:28:29;7.00;99.90
21033;DHT22;10675;47.976;7.824;2023-01-09T14:38:31;6.90;99.90
21033;DHT22;10675;47.976;7.824;2023-01-09T14:46:39;6.90;99.90
21033;DHT22;10675;47.976;7.824;2023-01-09T14:51:43;6.90;99.90
21033;DHT22;10675;47.976;7.824;2023-01-09T14:56:54;6.90;99.90
21033;DHT22;10675;47.976;7.824;2023-01-09T14:59:19;6.90;99.90
21033;DHT22;10675;47.976;7.824;2023-01-09T15:01:46;6.90;99.90
21033;DHT22;10675;47.976;7.824;2023-01-09T15:04:32;7.20;99.90
21033;DHT22;10675;47.976;7.824;2023-01-09T15:07:00;7.10;99.90
21033;DHT22;10675;47.976;7.824;2023-01-09T15:11:55;6.80;99.90
21033;DHT22;10675;47.976;7.824;2023-01-09T15:16:56;6.50;99.90
21033;DHT22;10675;47.976;7.824;2023-01-09T15:19:22;6.40;99.90
21033;DHT22;10675;47.976;7.824;2023-01-09T15:22:05;6.40;99.90
21033;DHT22;10675;47.976;7.824;2023-01-09T15:24:33;6.30;99.90
21033;DHT22;10675;47.976;7.824;2023-01-09T15:27:16;6.30;99.90
21033;DHT22;10675;47.976;7.824;2023-01-09T15:29:49;6.20;99.90
21033;DHT22;10675;47.976;7.824;2023-01-09T15:32:22;6.20;99.90
21033;DHT22;10675;47.976;7.824;2023-01-09T15:34:49;6.20;99.90
21033;DHT22;10675;47.976;7.824;2023-01-09T15:37:31;6.20;99.90
21033;DHT22;10675;47.976;7.824;2023-01-09T15:39:58;6.10;99.90
21033;DHT22;10675;47.976;7.824;2023-01-09T15:42:31;6.10;99.90
21033;DHT22;10675;47.976;7.824;2023-01-09T15:45:28;6.10;99.90
21033;DHT22;10675;47.976;7.824;2023-01-09T15:48:17;6.10;99.90
21033;DHT22;10675;47.976;7.824;2023-01-09T15:50:48;5.90;99.90
21033;DHT22;10675;47.976;7.824;2023-01-09T15:53:19;6.00;99.90
21033;DHT22;10675;47.976;7.824;2023-01-09T15:56:03;6.10;99.90
21033;DHT22;10675;47.976;7.824;2023-01-09T15:58:33;6.00;99.90
21033;DHT22;10675;47.976;7.824;2023-01-09T16:03:46;6.10;99.90
21033;DHT22;10675;47.976;7.824;2023-01-09T16:06:25;6.10;99.90
21033;DHT22;10675;47.976;7.824;2023-01-09T16:08:53;6.10;99.90
21033;DHT22;10675;47.976;7.824;2023-01-09T16:11:31;6.10;99.90
21033;DHT22;10675;47.976;7.824;2023-01-09T16:16:46;6.10;99.90
21033;DHT22;10675;47.976;7.824;2023-01-09T16:22:00;6.10;99.90
21033;DHT22;10675;47.976;7.824;2023-01-09T16:24:36;6.00;99.90
21033;DHT22;10675;47.976;7.824;2023-01-09T16:27:20;6.10;99.90
21033;DHT22;10675;47.976;7.824;2023-01-09T16:29:48;6.00;99.90
21033;DHT22;10675;47.976;7.824;2023-01-09T16:32:22;6.30;99.90
21033;DHT22;10675;47.976;7.824;2023-01-09T16:34:57;6.20;99.90
21033;DHT22;10675;47.976;7.824;2023-01-09T16:37:24;6.20;99.90
21033;DHT22;10675;47.976;7.824;2023-01-09T16:45:26;6.20;99.90
21033;DHT22;10675;47.976;7.824;2023-01-09T16:47:52;6.20;99.90
21033;DHT22;10675;47.976;7.824;2023-01-09T16:50:17;6.30;99.90
21033;DHT22;10675;47.976;7.824;2023-01-09T16:52:43;6.30;99.90
21033;DHT22;10675;47.976;7.824;2023-01-09T16:55:08;6.20;99.90
21033;DHT22;10675;47.976;7.824;2023-01-09T17:00:00;6.40;99.90
21033;DHT22;10675;47.976;7.824;2023-01-09T17:02:27;6.40;99.90
21033;DHT22;10675;47.976;7.824;2023-01-09T17:04:52;6.40;99.90
21033;DHT22;10675;47.976;7.824;2023-01-09T17:07:22;6.30;99.90
21033;DHT22;10675;47.976;7.824;2023-01-09T17:09:50;6.30;99.90
21033;DHT22;10675;47.976;7.824;2023-01-09T17:12:17;6.30;99.90
21033;DHT22;10675;47.976;7.824;2023-01-09T17:14:47;6.20;99.90
21033;DHT22;10675;47.976;7.824;2023-01-09T17:19:40;6.20;99.90
21033;DHT22;10675;47.976;7.824;2023-01-09T17:22:06;6.20;99.90
21033;DHT22;10675;47.976;7.824;2023-01-09T17:24:32;6.30;99.90
21033;DHT22;10675;47.976;7.824;2023-01-09T17:27:26;6.30;99.90
21033;DHT22;10675;47.976;7.824;2023-01-09T17:32:38;6.20;99.90
21033;DHT22;10675;47.976;7.824;2023-01-09T17:35:04;6.30;99.90
21033;DHT22;10675;47.976;7.824;2023-01-09T17:37:30;6.30;99.90
21033;DHT22;10675;47.976;7.824;2023-01-09T17:39:55;6.30;99.90
21033;DHT22;10675;47.976;7.824;2023-01-09T17:42:25;6.30;99.90
21033;DHT22;10675;47.976;7.824;2023-01-09T17:44:51;6.30;99.90
21033;DHT22;10675;47.976;7.824;2023-01-09T17:47:19;6.10;99.90
21033;DHT22;10675;47.976;7.824;2023-01-09T17:49:45;6.20;99.90
21033;DHT22;10675;47.976;7.824;2023-01-09T17:52:10;6.20;99.90
21033;DHT22;10675;47.976;7.824;2023-01-09T17:54:36;6.20;99.90
21033;DHT22;10675;47.976;7.824;2023-01-09T17:57:02;6.20;99.90
21033;DHT22;10675;47.976;7.824;2023-01-09T17:59:27;6.20;99.90
21033;DHT22;10675;47.976;7.824;2023-01-09T18:04:20;6.20;99.90
21033;DHT22;10675;47.976;7.824;2023-01-09T18:06:46;6.10;99.90
21033;DHT22;10675;47.976;7.824;2023-01-09T18:09:15;6.10;99.90
21033;DHT22;10675;47.976;7.824;2023-01-09T18:11:42;6.20;99.90
21033;DHT22;10675;47.976;7.824;2023-01-09T18:14:08;6.20;99.90
21033;DHT22;10675;47.976;7.824;2023-01-09T18:16:34;6.10;99.90
21033;DHT22;10675;47.976;7.824;2023-01-09T18:19:00;6.10;99.90
21033;DHT22;10675;47.976;7.824;2023-01-09T18:21:27;6.10;99.90
21033;DHT22;10675;47.976;7.824;2023-01-09T18:23:54;6.10;99.90
21033;DHT22;10675;47.976;7.824;2023-01-09T18:26:21;6.10;99.90
21033;DHT22;10675;47.976;7.824;2023-01-09T18:28:48;6.10;99.90
21033;DHT22;10675;47.976;7.824;2023-01-09T18:31:15;6.10;99.90
21033;DHT22;10675;47.976;7.824;2023-01-09T18:33:43;6.10;99.90
21033;DHT22;10675;47.976;7.824;2023-01-09T18:36:10;6.20;99.90
21033;DHT22;10675;47.976;7.824;2023-01-09T18:38:35;6.20;99.90
21033;DHT22;10675;47.976;7.824;2023-01-09T18:41:02;6.20;99.90
21033;DHT22;10675;47.976;7.824;2023-01-09T18:43:28;6.10;99.90
21033;DHT22;10675;47.976;7.824;2023-01-09T18:45:54;6.20;99.90
21033;DHT22;10675;47.976;7.824;2023-01-09T18:48:21;6.20;99.90
21033;DHT22;10675;47.976;7.824;2023-01-09T18:50:46;6.20;99.90
21033;DHT22;10675;47.976;7.824;2023-01-09T18:53:12;6.20;99.90
21033;DHT22;10675;47.976;7.824;2023-01-09T18:55:38;6.10;99.90
21033;DHT22;10675;47.976;7.824;2023-01-09T18:58:03;6.20;99.90
21033;DHT22;10675;47.976;7.824;2023-01-09T19:00:29;6.30;99.90
21033;DHT22;10675;47.976;7.824;2023-01-09T19:02:55;6.20;99.90
21033;DHT22;10675;47.976;7.824;2023-01-09T19:05:21;6.20;99.90
21033;DHT22;10675;47.976;7.824;2023-01-09T19:07:46;6.20;99.90
21033;DHT22;10675;47.976;7.824;2023-01-09T19:10:12;6.20;99.90
21033;DHT22;10675;47.976;7.824;2023-01-09T19:12:38;6.20;99.90
21033;DHT22;10675;47.976;7.824;2023-01-09T19:17:36;6.20;99.90
21033;DHT22;10675;47.976;7.824;2023-01-09T19:20:01;6.20;99.90
21033;DHT22;10675;47.976;7.824;2023-01-09T19:22:27;6.20;99.90
21033;DHT22;10675;47.976;7.824;2023-01-09T19:24:53;6.20;99.90